Time;durP1;ratioP1;P1;durP2;ratioP2;P2;SDS_P1;SDS_P2;PMS_P1;PMS_P2;Temp;Humidity;BMP_temperature;BMP_pressure;BME280_temperature;BME280_humidity;BME280_pressure;Samples;Min_cycle;Max_cycle;Signal;HPM_P1;HPM_P2
2022/01/05 00:00:15;;;;;;;7.83;1.53;;;7.10;99.90;;;7.27;100.00;99003.75;4976865;28;20664;-66
2022/01/05 00:02:42;;;;;;;1.53;1.40;;;7.10;99.90;;;7.23;100.00;99002.38;4995185;28;20629;-68
2022/01/05 00:05:10;;;;;;;1.43;1.40;;;7.00;99.90;;;7.13;100.00;99004.09;4992738;28;20732;-65
2022/01/05 00:07:37;;;;;;;3.30;1.77;;;7.00;99.90;;;7.13;100.00;99014.47;4994222;28;20637;-66
2022/01/05 00:10:05;;;;;;;2.27;2.10;;;6.90;99.90;;;7.14;100.00;99020.44;4976587;28;20674;-65
2022/01/05 00:12:32;;;;;;;1.57;1.57;;;6.90;99.90;;;7.17;100.00;99015.84;4976316;28;21016;-65
2022/01/05 00:14:59;;;;;;;2.00;1.80;;;6.90;99.90;;;7.14;100.00;99016.09;4992976;28;20653;-64
2022/01/05 00:17:27;;;;;;;3.90;1.67;;;7.00;99.90;;;7.20;100.00;99015.56;4993735;28;21174;-65
2022/01/05 00:19:54;;;;;;;1.50;1.40;;;7.00;99.90;;;7.25;100.00;99012.59;4993878;28;20764;-65
2022/01/05 00:22:21;;;;;;;1.20;1.13;;;7.00;99.90;;;7.21;100.00;98996.47;4995810;28;20622;-65
2022/01/05 00:24:49;;;;;;;0.30;0.30;;;7.00;99.90;;;7.14;100.00;98995.34;4993722;28;20666;-66
2022/01/05 00:27:16;;;;;;;1.27;1.23;;;7.00;99.90;;;7.11;100.00;98990.44;4993600;28;20664;-66
2022/01/05 00:29:43;;;;;;;1.53;1.50;;;6.90;99.90;;;7.15;100.00;98971.06;4993758;28;20673;-69
2022/01/05 00:32:10;;;;;;;1.70;1.60;;;6.90;99.90;;;7.13;100.00;98972.97;5005902;28;21107;-67
2022/01/05 00:34:37;;;;;;;1.80;1.70;;;6.90;99.90;;;7.16;100.00;98971.84;4977245;28;21201;-67
2022/01/05 00:37:04;;;;;;;1.50;1.40;;;6.90;99.90;;;7.09;100.00;98966.41;4995164;28;20614;-66
2022/01/05 00:39:32;;;;;;;2.07;1.97;;;6.90;99.90;;;7.16;100.00;98972.69;4956752;28;20662;-65
2022/01/05 00:42:00;;;;;;;2.30;1.90;;;7.00;99.90;;;7.17;100.00;98969.16;4988073;28;20685;-65
2022/01/05 00:44:27;;;;;;;1.80;1.70;;;7.00;99.90;;;7.22;100.00;98961.00;4994581;28;20642;-64
2022/01/05 00:46:54;;;;;;;1.40;1.30;;;7.00;99.90;;;7.25;100.00;98951.19;5010890;28;20623;-66
2022/01/05 00:49:21;;;;;;;1.30;1.30;;;7.00;99.90;;;7.22;100.00;98948.81;4993978;28;21017;-65
2022/01/05 00:51:48;;;;;;;0.90;0.90;;;7.10;99.90;;;7.20;100.00;98955.91;4994190;28;20819;-65
2022/01/05 00:54:15;;;;;;;1.23;1.13;;;7.00;99.90;;;7.17;100.00;98968.34;4973866;28;21167;-65
2022/01/05 00:56:42;;;;;;;1.20;1.20;;;7.00;99.90;;;7.13;100.00;98961.75;4991076;28;20626;-65
2022/01/05 00:59:09;;;;;;;1.77;1.40;;;6.90;99.90;;;7.20;100.00;98976.66;4960063;28;20665;-66
2022/01/05 01:01:36;;;;;;;1.07;1.07;;;7.00;99.90;;;7.19;100.00;98961.25;4984458;28;20628;-65
2022/01/05 01:04:05;;;;;;;1.10;1.10;;;7.00;99.90;;;7.22;100.00;98968.78;4987799;23;20703;-71
2022/01/05 01:06:32;;;;;;;1.00;1.00;;;7.00;99.90;;;7.22;100.00;98966.97;4956301;28;20637;-69
2022/01/05 01:08:59;;;;;;;1.20;1.20;;;7.10;99.90;;;7.21;100.00;98959.34;4973080;28;20607;-69
2022/01/05 01:11:26;;;;;;;1.03;1.03;;;7.00;99.90;;;7.20;100.00;98962.91;4973552;28;20726;-72
2022/01/05 01:13:53;;;;;;;1.00;1.00;;;6.90;99.90;;;7.19;100.00;98971.63;4971451;28;20642;-69
2022/01/05 01:16:20;;;;;;;5.20;1.43;;;7.00;99.90;;;7.14;100.00;98979.78;4954037;29;20623;-68
2022/01/05 01:18:47;;;;;;;1.70;1.20;;;6.90;99.90;;;7.08;100.00;98982.88;4954808;28;20612;-68
2022/01/05 01:21:14;;;;;;;1.30;1.30;;;6.90;99.90;;;7.12;100.00;98980.84;4953673;29;20631;-70
2022/01/05 01:23:52;;;;;;;0.90;0.90;;;6.90;99.90;;;7.09;100.00;98976.78;4938051;29;20655;-69
2022/01/05 01:26:19;;;;;;;1.10;1.10;;;6.90;99.90;;;7.11;100.00;98993.03;4935980;29;20641;-70
2022/01/05 01:28:47;;;;;;;1.67;1.60;;;6.90;99.90;;;7.17;100.00;98994.25;4937426;29;20621;-69
2022/01/05 01:31:14;;;;;;;1.50;1.40;;;7.00;99.90;;;7.22;100.00;99003.28;4935194;29;20679;-68
2022/01/05 01:33:41;;;;;;;0.90;0.90;;;7.00;99.90;;;7.27;100.00;99006.34;4934760;29;20640;-69
2022/01/05 01:36:08;;;;;;;1.33;1.23;;;7.10;99.90;;;7.27;100.00;98990.78;4933469;29;21219;-70
2022/01/05 01:38:35;;;;;;;0.90;0.90;;;7.10;99.90;;;7.32;100.00;98992.97;4942836;29;20632;-71
2022/01/05 01:41:02;;;;;;;0.83;0.83;;;7.10;99.90;;;7.34;100.00;98991.09;4949993;29;20648;-69
2022/01/05 01:43:29;;;;;;;0.80;0.80;;;7.20;99.90;;;7.35;100.00;98996.13;4936421;29;20664;-71
2022/01/05 01:45:56;;;;;;;1.63;0.87;;;7.20;99.90;;;7.39;100.00;98997.50;4953949;29;20620;-70
2022/01/05 01:48:23;;;;;;;0.50;0.50;;;7.20;99.90;;;7.39;100.00;98989.72;4935156;29;20647;-70
2022/01/05 01:50:50;;;;;;;0.50;0.50;;;7.20;99.90;;;7.42;100.00;98996.44;4953647;29;20673;-73
2022/01/05 01:53:17;;;;;;;0.43;0.43;;;7.20;99.90;;;7.42;100.00;99010.25;4950797;29;20640;-72
2022/01/05 01:55:48;;;;;;;0.40;0.40;;;7.20;99.90;;;7.42;100.00;99005.06;4952293;29;20626;-70
2022/01/05 01:58:19;;;;;;;2.50;0.87;;;7.20;99.90;;;7.45;99.88;99014.34;4945011;29;20633;-68
2022/01/05 02:00:46;;;;;;;0.63;0.50;;;7.20;99.90;;;7.47;99.12;99015.88;4919232;29;20675;-70
2022/01/05 02:03:14;;;;;;;0.60;0.60;;;7.20;99.90;;;7.48;98.07;99003.69;4933773;29;20700;-69
2022/01/05 02:05:41;;;;;;;0.40;0.40;;;7.30;99.90;;;7.53;97.58;99004.97;4934769;29;20672;-72
2022/01/05 02:08:08;;;;;;;0.50;0.50;;;7.30;99.90;;;7.55;96.84;99003.06;4947992;29;20647;-68
2022/01/05 02:10:36;;;;;;;0.57;0.57;;;7.40;99.90;;;7.61;96.89;99010.31;4946906;29;20674;-68
2022/01/05 02:13:04;;;;;;;0.40;0.40;;;7.40;99.90;;;7.64;96.42;99007.47;4942157;29;20647;-70
2022/01/05 02:15:31;;;;;;;1.03;0.60;;;7.50;99.90;;;7.64;96.33;99010.06;4935248;29;20608;-70
2022/01/05 02:20:34;;;;;;;0.50;0.50;;;7.50;99.90;;;7.70;96.90;99017.34;4935102;29;20612;-69
2022/01/05 02:23:01;;;;;;;0.80;0.50;;;7.50;99.90;;;7.71;97.02;99025.91;4930469;29;20727;-69
2022/01/05 02:25:28;;;;;;;0.70;0.60;;;7.50;99.90;;;7.70;96.45;99009.53;4937445;29;20623;-71
2022/01/05 02:27:56;;;;;;;0.50;0.50;;;7.50;99.90;;;7.72;95.95;99018.03;4946908;29;21014;-69
2022/01/05 02:30:28;;;;;;;0.60;0.60;;;7.50;99.90;;;7.67;96.25;99004.59;4942435;28;21110;-69
2022/01/05 02:32:55;;;;;;;0.63;0.60;;;7.50;99.90;;;7.70;96.16;99004.34;4951875;28;20637;-68
2022/01/05 02:35:24;;;;;;;0.73;0.60;;;7.50;99.90;;;7.69;96.59;98996.66;4941554;29;20639;-71
2022/01/05 02:37:53;;;;;;;0.50;0.40;;;7.50;99.90;;;7.69;96.25;98988.88;4953003;29;20608;-68
2022/01/05 02:40:22;;;;;;;0.97;0.50;;;7.50;99.90;;;7.69;95.63;98994.91;4947823;28;20647;-69
2022/01/05 02:42:52;;;;;;;0.40;0.40;;;7.50;99.90;;;7.68;95.51;98990.69;4955355;28;20619;-69
2022/01/05 02:45:19;;;;;;;0.40;0.40;;;7.50;99.90;;;7.67;95.06;98994.22;4942401;29;20643;-69
2022/01/05 02:47:47;;;;;;;0.57;0.57;;;7.50;99.90;;;7.65;94.78;98995.28;4953055;29;20676;-71
2022/01/05 02:50:14;;;;;;;0.60;0.60;;;7.40;99.90;;;7.64;94.48;98993.66;4948098;28;21335;-69
2022/01/05 02:52:42;;;;;;;0.50;0.47;;;7.40;99.90;;;7.64;94.18;98999.69;4934725;29;20632;-71
2022/01/05 02:55:12;;;;;;;0.50;0.50;;;7.40;99.90;;;7.72;93.28;99005.03;4936301;29;20644;-72
2022/01/05 02:57:39;;;;;;;0.50;0.50;;;7.50;99.90;;;7.73;92.75;99018.84;4949405;29;20640;-72
2022/01/05 03:00:10;;;;;;;0.50;0.50;;;7.50;99.90;;;7.76;93.06;99034.97;4928618;28;20624;-69
2022/01/05 03:02:37;;;;;;;0.40;0.40;;;7.50;99.90;;;7.79;93.09;99076.22;4918291;29;20612;-68
2022/01/05 03:05:05;;;;;;;0.50;0.50;;;7.60;99.90;;;7.07;82.74;99128.25;4934539;29;21080;-69
2022/01/05 03:07:36;;;;;;;0.50;0.50;;;7.10;99.90;;;6.37;84.18;99138.22;4934589;29;21074;-71
2022/01/05 03:10:05;;;;;;;0.60;0.60;;;6.40;99.90;;;5.75;85.29;99138.63;4936952;29;20670;-69
2022/01/05 03:12:32;;;;;;;0.60;0.60;;;5.70;99.90;;;5.39;86.51;99149.16;4945990;29;20742;-69
2022/01/05 03:14:59;;;;;;;0.60;0.60;;;5.30;99.90;;;5.12;88.45;99146.03;4947516;29;20656;-69
2022/01/05 03:17:26;;;;;;;0.40;0.40;;;5.00;99.90;;;4.91;89.31;99163.09;4951777;29;20215;-70
2022/01/05 03:19:53;;;;;;;0.47;0.47;;;4.80;99.90;;;4.72;91.32;99172.16;4947676;29;20208;-69
2022/01/05 03:22:20;;;;;;;0.70;0.70;;;4.70;99.90;;;4.58;91.87;99169.72;4942128;29;20216;-69
2022/01/05 03:24:47;;;;;;;0.38;0.38;;;4.50;99.90;;;4.55;92.74;99177.69;4952178;29;20220;-71
2022/01/05 03:27:14;;;;;;;0.73;0.60;;;4.50;99.90;;;4.58;92.89;99174.88;4951150;29;20220;-69
2022/01/05 03:29:41;;;;;;;0.30;0.30;;;4.50;99.90;;;4.59;93.82;99179.13;4946630;29;20223;-68
2022/01/05 03:32:09;;;;;;;1.00;1.00;;;4.50;99.90;;;4.61;93.53;99185.00;4949836;29;20215;-69
2022/01/05 03:34:37;;;;;;;0.70;0.70;;;4.60;99.90;;;4.65;93.96;99204.53;4934613;29;20220;-69
2022/01/05 03:37:05;;;;;;;0.70;0.70;;;4.60;99.90;;;4.70;93.70;99199.88;4940894;29;20201;-69
2022/01/05 03:39:32;;;;;;;0.30;0.30;;;4.60;99.90;;;4.69;93.31;99203.38;4944298;29;20201;-71
2022/01/05 03:41:59;;;;;;;0.50;0.50;;;4.60;99.90;;;4.72;93.25;99210.91;4928830;29;20292;-69
2022/01/05 03:44:27;;;;;;;0.80;0.80;;;4.60;99.90;;;4.75;93.02;99209.03;4933326;29;20225;-68
2022/01/05 03:46:55;;;;;;;0.75;0.75;;;4.60;99.90;;;4.80;93.48;99225.88;4933098;29;20205;-71
2022/01/05 03:49:23;;;;;;;0.50;0.50;;;4.70;99.90;;;4.78;93.17;99232.06;4943145;29;20205;-69
2022/01/05 03:51:51;;;;;;;0.32;0.32;;;4.70;99.90;;;4.86;92.96;99237.53;4944393;28;20315;-69
2022/01/05 03:54:19;;;;;;;0.70;0.70;;;4.70;99.90;;;4.85;92.65;99251.38;4950554;29;20220;-69
2022/01/05 03:56:45;;;;;;;0.60;0.60;;;4.80;99.90;;;4.84;93.05;99252.31;4951927;29;20200;-70
2022/01/05 03:59:12;;;;;;;0.70;0.70;;;4.70;99.90;;;4.84;92.71;99266.06;4951747;29;20209;-70
2022/01/05 04:01:39;;;;;;;1.50;0.77;;;4.70;99.90;;;4.85;92.91;99277.22;4952934;28;20201;-68
2022/01/05 04:04:06;;;;;;;0.80;0.80;;;4.80;99.90;;;4.88;92.41;99266.66;4938768;29;20638;-69
2022/01/05 04:06:33;;;;;;;0.75;0.75;;;4.80;99.90;;;4.89;92.54;99273.50;4945155;29;20208;-71
2022/01/05 04:09:00;;;;;;;0.50;0.50;;;4.80;99.90;;;4.85;92.71;99292.72;4952005;29;20401;-68
2022/01/05 04:11:27;;;;;;;0.45;0.45;;;4.80;99.90;;;4.84;92.76;99288.47;4947648;29;20247;-69
2022/01/05 04:13:54;;;;;;;0.70;0.70;;;4.80;99.90;;;4.87;92.77;99281.38;4938571;29;20246;-71
2022/01/05 04:16:20;;;;;;;0.90;0.90;;;4.80;99.90;;;4.91;91.64;99306.06;4951483;29;20205;-69
2022/01/05 04:18:47;;;;;;;0.90;0.90;;;4.80;99.90;;;4.86;91.49;99296.94;4948766;28;20198;-68
2022/01/05 04:21:14;;;;;;;0.68;0.68;;;4.80;99.90;;;4.89;91.32;99296.75;4932002;29;20201;-68
2022/01/05 04:23:41;;;;;;;0.50;0.50;;;4.80;99.90;;;4.82;89.77;99301.53;4944936;29;20221;-70
2022/01/05 04:26:08;;;;;;;0.60;0.60;;;4.80;99.90;;;4.80;89.95;99305.13;4952147;29;20212;-68
2022/01/05 04:28:35;;;;;;;0.50;0.50;;;4.70;99.90;;;4.82;89.40;99318.78;4942770;29;20209;-68
2022/01/05 04:31:02;;;;;;;0.70;0.70;;;4.80;99.90;;;4.88;88.13;99329.50;4953069;29;20224;-72
2022/01/05 04:33:29;;;;;;;0.40;0.40;;;4.80;99.90;;;4.95;87.88;99335.09;4938081;29;20221;-69
2022/01/05 04:36:16;;;;;;;0.38;0.38;;;4.90;99.90;;;5.06;88.14;99354.09;4935528;28;20212;-70
2022/01/05 04:38:42;;;;;;;0.40;0.38;;;4.90;99.90;;;5.08;87.38;99354.00;4936719;29;20204;-69
2022/01/05 04:41:09;;;;;;;0.50;0.50;;;5.00;99.90;;;5.12;87.66;99363.19;4950287;28;20203;-69
2022/01/05 04:43:36;;;;;;;0.50;0.50;;;5.00;99.90;;;5.11;88.30;99367.50;4936546;29;20234;-69
2022/01/05 04:46:03;;;;;;;0.40;0.40;;;5.00;99.90;;;5.16;88.12;99380.13;4937355;29;20210;-69
2022/01/05 04:48:30;;;;;;;0.40;0.40;;;5.00;99.90;;;5.16;88.54;99405.97;4918008;29;20462;-69
2022/01/05 04:50:57;;;;;;;0.47;0.47;;;5.10;99.90;;;5.19;88.18;99410.97;4937311;29;20237;-69
2022/01/05 04:53:24;;;;;;;0.45;0.45;;;5.10;99.90;;;5.18;88.07;99422.22;4948339;29;20271;-72
2022/01/05 04:55:51;;;;;;;0.65;0.50;;;5.00;99.90;;;5.20;87.47;99415.19;4953969;29;20669;-69
2022/01/05 04:58:18;;;;;;;0.40;0.40;;;5.00;99.90;;;5.22;87.83;99427.06;4946017;29;20204;-68
2022/01/05 05:00:45;;;;;;;0.43;0.43;;;5.10;99.90;;;5.29;88.24;99425.72;4937222;29;20703;-68
2022/01/05 05:03:12;;;;;;;0.65;0.50;;;5.20;99.90;;;5.31;88.51;99435.97;4953813;28;20225;-68
2022/01/05 05:05:39;;;;;;;0.85;0.55;;;5.20;99.90;;;5.31;88.03;99438.53;4933492;29;20232;-68
2022/01/05 05:08:06;;;;;;;0.55;0.52;;;5.20;99.90;;;5.32;88.80;99440.22;4951132;29;20197;-70
2022/01/05 05:10:33;;;;;;;0.57;0.57;;;5.20;99.90;;;5.29;88.21;99432.66;4931358;28;20247;-69
2022/01/05 05:13:12;;;;;;;0.70;0.70;;;5.10;99.90;;;5.30;89.62;99444.66;4959343;28;20212;-71
2022/01/05 05:15:40;;;;;;;2.22;0.60;;;5.10;99.90;;;5.34;90.23;99453.88;4942874;29;20207;-69
2022/01/05 05:18:07;;;;;;;0.50;0.50;;;5.20;99.90;;;5.37;90.38;99462.22;4920030;29;20213;-68
2022/01/05 05:20:35;;;;;;;0.50;0.50;;;5.20;99.90;;;5.41;89.85;99465.41;4944348;28;20207;-69
2022/01/05 05:23:03;;;;;;;0.40;0.40;;;5.30;99.90;;;5.46;88.69;99474.53;4955086;29;20231;-71
2022/01/05 05:25:30;;;;;;;0.40;0.40;;;5.30;99.90;;;5.46;88.27;99479.72;4949755;29;20205;-68
2022/01/05 05:27:57;;;;;;;0.63;0.63;;;5.30;99.90;;;5.48;88.13;99484.75;4918738;29;20206;-68
2022/01/05 05:30:33;;;;;;;0.60;0.50;;;5.30;99.90;;;5.51;87.79;99485.38;4938152;29;20224;-71
2022/01/05 05:33:00;;;;;;;0.50;0.50;;;5.40;99.90;;;5.41;86.86;99481.78;4952496;28;20204;-69
2022/01/05 05:35:27;;;;;;;0.57;0.57;;;5.30;99.90;;;5.44;86.45;99502.28;4954211;29;20207;-71
2022/01/05 05:37:55;;;;;;;3.92;3.42;;;5.30;99.90;;;5.45;86.80;99500.53;4954554;28;20205;-71
2022/01/05 05:40:23;;;;;;;0.75;0.75;;;5.30;99.90;;;5.42;86.38;99511.91;4936500;28;20399;-68
2022/01/05 05:42:51;;;;;;;0.40;0.40;;;5.20;99.90;;;5.47;85.70;99503.81;4948456;29;20202;-72
2022/01/05 05:45:18;;;;;;;0.32;0.32;;;5.30;99.90;;;5.46;84.57;99508.16;4919158;29;20626;-71
2022/01/05 05:47:45;;;;;;;0.65;0.40;;;5.30;99.90;;;5.35;85.02;99512.41;4936471;29;20201;-72
2022/01/05 05:50:12;;;;;;;0.30;0.30;;;5.20;99.90;;;5.25;83.81;99522.56;4958828;28;20209;-69
2022/01/05 05:52:39;;;;;;;1.17;0.52;;;5.20;99.90;;;5.43;82.10;99525.66;4967720;29;20272;-69
2022/01/05 05:55:07;;;;;;;0.30;0.30;;;5.20;99.90;;;5.24;82.16;99526.06;4947816;29;20248;-70
2022/01/05 05:57:43;;;;;;;0.60;0.40;;;5.10;99.90;;;5.34;82.38;99529.69;4943145;29;20201;-71
2022/01/05 06:00:12;;;;;;;0.20;0.20;;;5.10;99.90;;;5.14;84.02;99529.38;4933653;29;20201;-72
2022/01/05 06:02:39;;;;;;;0.40;0.40;;;5.00;99.90;;;5.19;83.36;99541.06;4963494;29;20212;-69
2022/01/05 06:05:07;;;;;;;1.50;0.73;;;5.00;99.90;;;5.21;83.80;99522.88;4930061;29;20232;-69
2022/01/05 06:07:34;;;;;;;2.47;0.60;;;5.00;99.90;;;5.20;84.13;99529.78;4951872;28;20224;-71
2022/01/05 06:10:01;;;;;;;1.17;0.70;;;5.00;99.90;;;5.24;84.03;99539.00;4962229;29;20291;-70
2022/01/05 06:12:28;;;;;;;0.25;0.25;;;5.10;99.90;;;5.23;84.11;99547.69;4945501;29;20229;-68
2022/01/05 06:14:55;;;;;;;0.50;0.50;;;5.10;99.90;;;5.22;84.43;99563.28;4960993;28;20224;-69
2022/01/05 06:17:22;;;;;;;0.53;0.53;;;5.10;99.90;;;5.16;84.10;99571.47;4961332;29;20685;-72
2022/01/05 06:19:49;;;;;;;0.93;0.60;;;5.10;99.90;;;5.18;83.60;99569.59;4964448;29;20632;-68
2022/01/05 06:22:17;;;;;;;0.40;0.40;;;5.00;99.90;;;5.16;83.29;99574.88;4946215;29;20201;-69
2022/01/05 06:24:48;;;;;;;1.17;0.80;;;5.00;99.90;;;5.17;83.48;99586.91;4929886;28;20225;-68
2022/01/05 06:27:16;;;;;;;1.02;0.50;;;5.00;99.90;;;5.17;83.69;99591.22;4952809;29;20288;-69
2022/01/05 06:29:43;;;;;;;1.13;0.63;;;5.00;99.90;;;5.17;83.18;99588.66;4952487;29;20307;-71
2022/01/05 06:32:10;;;;;;;0.30;0.30;;;5.00;99.90;;;5.22;82.83;99605.50;4943489;28;20229;-70
2022/01/05 06:34:37;;;;;;;0.60;0.60;;;5.10;99.90;;;5.27;83.10;99605.19;4953615;28;20302;-71
2022/01/05 06:37:05;;;;;;;0.80;0.80;;;5.10;99.90;;;5.26;83.16;99611.31;4952959;28;20201;-71
2022/01/05 06:39:32;;;;;;;0.52;0.52;;;5.10;99.90;;;5.22;82.88;99621.00;4934398;29;20220;-70
2022/01/05 06:41:59;;;;;;;0.60;0.60;;;5.00;99.90;;;5.19;83.47;99629.00;4933584;29;20212;-69
2022/01/05 06:44:26;;;;;;;0.65;0.65;;;5.00;99.90;;;5.11;83.53;99633.81;4950397;29;20713;-69
2022/01/05 06:46:53;;;;;;;1.02;0.80;;;4.90;99.90;;;5.06;81.71;99642.81;4949547;29;20207;-70
2022/01/05 06:49:23;;;;;;;2.17;0.40;;;4.90;99.90;;;5.03;78.55;99653.34;4949718;29;20205;-70
2022/01/05 06:51:51;;;;;;;0.70;0.70;;;4.80;99.90;;;4.93;74.88;99657.44;4951778;29;20659;-68
2022/01/05 06:54:18;;;;;;;0.93;0.50;;;4.70;99.90;;;4.82;73.29;99660.72;4932939;29;20673;-71
2022/01/05 06:56:46;;;;;;;0.88;0.80;;;4.60;99.90;;;4.81;71.32;99666.84;4951889;28;20209;-68
2022/01/05 06:59:14;;;;;;;0.57;0.57;;;4.60;99.90;;;4.80;70.21;99677.25;4950627;29;20209;-71
2022/01/05 07:01:41;;;;;;;0.40;0.40;;;4.60;99.90;;;4.75;70.37;99682.69;4945788;28;20406;-69
2022/01/05 07:04:08;;;;;;;0.40;0.40;;;4.50;99.90;;;4.71;70.71;99689.81;4967879;23;20318;-65
2022/01/05 07:06:35;;;;;;;0.50;0.50;;;4.50;99.90;;;4.68;70.34;99684.03;4971812;28;20686;-66
2022/01/05 07:09:02;;;;;;;0.68;0.68;;;4.50;99.90;;;4.66;70.86;99681.53;4989653;28;20789;-66
2022/01/05 07:11:30;;;;;;;0.60;0.60;;;4.50;99.90;;;4.66;71.00;99696.22;4973447;28;20314;-66
2022/01/05 07:13:58;;;;;;;0.40;0.40;;;4.50;99.90;;;4.66;71.18;99696.22;4984804;28;20670;-63
2022/01/05 07:16:25;;;;;;;0.65;0.43;;;4.50;99.90;;;4.65;71.14;99703.13;4987280;28;20282;-63
2022/01/05 07:18:52;;;;;;;1.48;0.70;;;4.60;99.90;;;4.64;70.52;99713.56;4969308;28;20274;-65
2022/01/05 07:21:19;;;;;;;0.50;0.50;;;4.50;99.90;;;4.55;70.41;99714.13;4990344;28;20294;-65
2022/01/05 07:23:46;;;;;;;0.50;0.50;;;4.50;99.90;;;4.47;70.99;99717.16;4992318;28;20733;-65
2022/01/05 07:26:13;;;;;;;0.57;0.57;;;4.30;99.90;;;4.49;71.24;99730.81;4991680;28;20218;-66
2022/01/05 07:28:40;;;;;;;0.50;0.50;;;4.30;99.90;;;4.49;71.58;99741.16;4991614;28;20207;-67
2022/01/05 07:31:07;;;;;;;0.68;0.68;;;4.30;99.90;;;4.46;72.35;99741.34;4989762;28;20223;-66
2022/01/05 07:33:34;;;;;;;0.25;0.25;;;4.30;99.90;;;4.47;72.39;99732.66;4990998;28;20643;-65
2022/01/05 07:36:01;;;;;;;13.57;5.13;;;4.30;99.90;;;4.43;73.59;99736.34;4980644;28;20675;-64
2022/01/05 07:38:29;;;;;;;1.65;1.55;;;4.20;99.90;;;4.38;73.22;99748.75;4977518;28;20683;-65
2022/01/05 07:40:56;;;;;;;0.60;0.60;;;4.20;99.90;;;4.36;72.92;99745.44;4991571;28;20200;-65
2022/01/05 07:43:23;;;;;;;0.88;0.70;;;4.20;99.90;;;4.34;71.64;99760.19;4973353;28;20685;-64
2022/01/05 07:45:50;;;;;;;0.80;0.80;;;4.10;99.90;;;4.32;72.84;99762.00;4991207;28;20207;-65
2022/01/05 07:48:17;;;;;;;0.50;0.50;;;4.10;99.90;;;4.34;72.75;99769.69;4989351;28;20565;-65
2022/01/05 07:50:44;;;;;;;0.80;0.50;;;4.20;99.90;;;4.28;73.45;99773.44;4991432;28;20207;-65
2022/01/05 07:53:10;;;;;;;0.90;0.70;;;4.10;99.90;;;4.31;74.19;99775.84;4989168;28;20682;-66
2022/01/05 07:55:37;;;;;;;2.00;0.98;;;4.10;99.90;;;4.31;74.02;99775.00;4985530;28;20207;-65
2022/01/05 07:58:05;;;;;;;0.90;0.90;;;4.10;99.90;;;4.36;74.34;99791.91;4989216;28;20203;-67
2022/01/05 08:00:35;;;;;;;0.77;0.77;;;4.20;99.90;;;4.44;72.71;99796.59;4991059;28;20207;-66
2022/01/05 08:03:02;;;;;;;0.70;0.70;;;4.30;99.90;;;4.56;72.69;99801.03;4989603;28;20191;-65
2022/01/05 08:05:30;;;;;;;0.88;0.88;;;4.50;99.90;;;4.65;71.57;99795.31;4989371;28;20352;-65
2022/01/05 08:07:57;;;;;;;0.50;0.50;;;4.60;99.90;;;4.75;70.94;99798.19;4994530;28;20205;-65
2022/01/05 08:10:24;;;;;;;3.45;0.90;;;4.70;99.90;;;4.73;70.02;99799.09;4991689;28;20295;-65
2022/01/05 08:12:51;;;;;;;0.70;0.70;;;4.70;99.90;;;4.78;70.49;99800.56;4991279;28;20230;-65
2022/01/05 08:15:18;;;;;;;0.75;0.75;;;4.60;99.90;;;4.82;70.25;99809.78;4994389;28;20222;-65
2022/01/05 08:17:45;;;;;;;0.60;0.60;;;4.70;99.90;;;4.92;68.94;99819.44;4995663;28;20203;-67
2022/01/05 08:20:13;;;;;;;1.95;0.73;;;4.90;99.90;;;5.09;68.42;99813.28;4992807;28;20338;-65
2022/01/05 08:22:42;;;;;;;0.50;0.50;;;5.00;99.90;;;5.42;67.36;99827.50;4994239;28;20595;-66
2022/01/05 08:25:12;;;;;;;3.72;0.80;;;5.40;99.90;;;6.23;66.01;99831.66;4992182;28;20699;-64
2022/01/05 08:27:46;;;;;;;1.33;0.80;;;6.30;99.90;;;7.32;62.44;99839.63;4972868;28;20209;-65
2022/01/05 08:30:19;;;;;;;0.53;0.50;;;7.60;99.90;;;7.59;59.28;99845.44;4993078;28;20633;-66
2022/01/05 08:32:47;;;;;;;5.47;1.00;;;8.00;99.90;;;7.57;59.53;99836.94;4993830;28;20764;-65
2022/01/05 08:35:16;;;;;;;1.17;0.90;;;7.70;99.90;;;8.86;58.03;99837.66;4994080;28;20658;-65
2022/01/05 08:37:44;;;;;;;1.33;0.80;;;9.00;99.90;;;10.74;53.99;99840.38;4992203;28;21235;-65
2022/01/05 08:40:16;;;;;;;2.03;0.80;;;11.30;98.30;;;12.73;48.67;99841.66;4988919;28;20688;-65
2022/01/05 08:42:44;;;;;;;1.03;0.90;;;13.60;91.20;;;14.69;43.85;99838.06;4976328;28;20640;-66
2022/01/05 08:45:11;;;;;;;1.93;1.23;;;15.70;77.80;;;16.15;40.38;99837.53;4993172;28;20697;-67
2022/01/05 08:47:38;;;;;;;1.70;1.23;;;17.40;66.70;;;17.49;37.46;99848.03;4974426;28;20629;-66
2022/01/05 08:50:06;;;;;;;1.27;1.17;;;18.90;60.20;;;18.70;35.22;99845.34;4992631;28;21269;-67
2022/01/05 08:52:33;;;;;;;5.13;1.40;;;20.20;56.20;;;20.00;33.01;99846.13;4992640;28;20804;-65
2022/01/05 08:54:59;;;;;;;2.03;1.53;;;21.60;52.20;;;21.02;30.22;99863.22;4993332;28;20630;-66
2022/01/05 08:57:26;;;;;;;2.20;1.20;;;22.60;48.60;;;21.50;29.08;99859.63;4992183;28;20673;-65
2022/01/05 08:59:53;;;;;;;4.83;1.50;;;23.10;45.80;;;21.97;26.80;99868.56;4994658;28;20705;-66
2022/01/05 09:02:20;;;;;;;1.43;1.33;;;23.90;42.90;;;22.18;27.14;99876.34;4976177;28;20640;-66
2022/01/05 09:04:51;;;;;;;1.43;1.17;;;23.80;42.90;;;22.36;27.10;99877.38;4977346;28;20691;-65
2022/01/05 09:07:19;;;;;;;5.23;1.40;;;24.20;42.30;;;22.28;26.97;99884.72;4992098;28;20665;-67
2022/01/05 09:09:46;;;;;;;1.53;1.30;;;24.00;41.80;;;22.12;26.53;99872.69;4976082;28;20676;-65
2022/01/05 09:12:13;;;;;;;2.50;1.67;;;24.00;41.30;;;21.26;26.71;99878.69;4992391;28;20666;-65
2022/01/05 09:14:40;;;;;;;3.73;0.90;;;23.00;40.90;;;19.15;29.11;99871.59;4992778;28;20725;-66
2022/01/05 09:17:08;;;;;;;1.63;1.33;;;20.30;43.50;;;15.72;33.57;99875.47;4990322;28;20673;-66
2022/01/05 09:19:35;;;;;;;5.23;0.80;;;16.40;48.40;;;13.63;37.48;99876.69;4975635;28;20618;-66
2022/01/05 09:22:03;;;;;;;2.20;1.10;;;13.70;53.30;;;12.10;41.07;99866.66;4992546;28;20660;-66
2022/01/05 09:24:49;;;;;;;1.00;1.00;;;11.90;57.70;;;10.78;44.17;99867.03;4992687;28;20637;-66
2022/01/05 09:27:17;;;;;;;3.03;1.50;;;10.50;63.00;;;9.61;48.43;99867.22;4975434;28;20638;-64
2022/01/05 09:29:45;;;;;;;1.57;0.77;;;9.40;72.10;;;8.99;50.38;99862.59;4990995;28;20642;-65
2022/01/05 09:32:12;;;;;;;2.40;0.90;;;8.70;82.20;;;8.42;51.90;99867.03;4991874;28;21243;-64
2022/01/05 09:34:41;;;;;;;1.23;0.67;;;8.20;90.80;;;8.06;54.15;99867.13;4992283;28;20654;-66
2022/01/05 09:37:23;;;;;;;3.73;1.00;;;7.80;94.20;;;7.59;55.18;99862.78;4975508;28;21177;-64
2022/01/05 09:42:39;;;;;;;0.40;0.40;;;6.80;99.90;;;6.90;58.33;99863.34;4977494;28;20638;-65
2022/01/05 09:45:15;;;;;;;1.27;0.83;;;6.60;99.90;;;6.72;59.50;99870.66;4991566;28;20662;-65
2022/01/05 09:47:59;;;;;;;0.73;0.50;;;6.50;99.90;;;6.50;60.14;99854.03;4983778;28;20642;-65
2022/01/05 09:50:27;;;;;;;0.93;0.93;;;6.20;99.90;;;6.40;60.22;99863.38;4992186;28;20650;-65
2022/01/05 09:52:55;;;;;;;1.90;0.57;;;6.20;99.90;;;6.23;61.00;99861.91;4990455;28;20998;-65
2022/01/05 09:55:23;;;;;;;3.60;0.70;;;6.00;99.90;;;6.15;60.82;99867.59;4990695;28;21233;-65
2022/01/05 09:57:51;;;;;;;0.87;0.87;;;5.90;99.90;;;6.05;61.87;99868.28;4991358;28;20636;-67
2022/01/05 10:00:19;;;;;;;0.50;0.50;;;5.80;99.90;;;5.92;61.59;99886.38;4968375;28;20637;-66
2022/01/05 10:02:49;;;;;;;1.53;0.70;;;5.70;99.90;;;5.86;62.21;99873.84;4992189;28;20599;-66
2022/01/05 10:05:17;;;;;;;4.05;1.40;;;5.60;99.90;;;5.89;62.33;99883.16;4974359;28;21252;-64
2022/01/05 10:07:44;;;;;;;1.80;0.50;;;5.60;99.90;;;5.78;62.85;99876.06;4975716;28;20755;-65
2022/01/05 10:10:11;;;;;;;0.70;0.70;;;5.60;99.90;;;5.81;62.58;99875.88;4997419;28;20657;-66
2022/01/05 10:12:39;;;;;;;0.70;0.70;;;5.60;99.90;;;5.74;62.40;99887.53;4993908;28;20223;-65
2022/01/05 10:15:12;;;;;;;3.13;0.40;;;5.50;99.90;;;5.71;62.43;99898.06;4984803;28;20730;-66
2022/01/05 10:17:41;;;;;;;0.50;0.50;;;5.60;99.90;;;5.72;62.69;99904.09;4991154;28;20679;-65
2022/01/05 10:20:12;;;;;;;2.15;0.90;;;5.50;99.90;;;5.75;63.17;99909.91;4974875;28;20195;-68
2022/01/05 10:22:42;;;;;;;1.15;0.95;;;5.50;99.90;;;5.78;62.89;99909.72;4991769;28;20203;-64
2022/01/05 10:25:21;;;;;;;0.50;0.50;;;5.60;99.90;;;5.68;63.27;99916.41;4992143;28;20233;-64
2022/01/05 10:27:56;;;;;;;3.42;0.55;;;5.50;99.90;;;5.71;63.48;99929.13;4973936;28;20205;-65
2022/01/05 10:30:35;;;;;;;1.25;0.50;;;5.50;99.90;;;5.71;63.14;99921.38;4992349;28;20210;-65
2022/01/05 10:33:03;;;;;;;0.40;0.40;;;5.50;99.90;;;5.67;63.80;99926.84;4991428;28;20699;-64
2022/01/05 10:35:30;;;;;;;1.80;1.00;;;5.50;99.90;;;5.72;63.60;99927.38;4993026;28;20231;-65
2022/01/05 10:38:05;;;;;;;0.82;0.73;;;5.50;99.90;;;5.67;63.00;99927.66;4991032;28;20203;-66